Avera, GA (30803)

12:00 PM EST on November 22, 2014 (GMT -0500)
RAWS LOUISVILLE GA US | Change Station
CLOSE
Current Station
Personal Weather Station
Location: Louisville, GA
Elevation: 311 ft
Nearby Weather Stations

Elev 311 ft 32.99 °N, 82.38 °W | Updated 57 minutes ago

Partly Cloudy
Partly Cloudy
58 °F
Feels Like 58 °F
N
5
Wind Variable Wind from East
Gusts 11.0 mph

Today
High -- | Low -- °F
--% Chance of Precip.
Yesterday
High -- | Low -- °F
Precip. -- in
7:07 AM 5:24 PM
New Moon, 0% visible
Pressure 30.52 in
Visibility 10.0 miles
Clouds Clear
Dew Point 25 °F
Humidity 28%
Rainfall -999.00 in
Snow Depth Not available.
UV 4 out of 12
Pollen .60 out of 12
Air Quality Not available.
Flu Activity Not available.
METAR KHQU 221635Z AUTO 06005KT 10SM CLR 13/00 A3052 RMK AO1 T01281002

More Conditions Fewer Conditions

Pressure 30.52 in
Visibility 10.0 miles
Clouds Clear
Dew Point 25 °F
Humidity 28%
Rainfall -999.00 in
Snow Depth Not available.
UV 4 out of 12
Pollen .60 out of 12
Air Quality Not available.
Flu Activity Not available.
METAR KHQU 221635Z AUTO 06005KT 10SM CLR 13/00 A3052 RMK AO1 T01281002

More Conditions Fewer Conditions

10-Day Weather Forecast

Almanac

Astronomy

Nov. 22, 2014 Rise Set
Actual Time
Civil Twilight
Nautical Twilight
Astronomical Twilight
Moon
Length of Visible Light
Length of Day
Tomorrow will be .
, % of the Moon is Illuminated

Today's Extremes

State Highs State Lows

Community

WunderPhotos

Upload Photos

1,772,860 photos uploaded!

WunderBlogs® & News

Nearby

Air Quality

  Air Quality AQ Index Pollutant
Not available.

Snow Depth

Station Depth Elevation

Earthquake Activity

City Distance Mag. Time & Date
Minimum magnitude displayed is 2.5.

Coastal Water Temperatures

Place Temperature

Nearby Weather Stations